Time;durP1;ratioP1;P1;durP2;ratioP2;P2;SDS_P1;SDS_P2;PMS_P1;PMS_P2;Temp;Humidity;BMP_temperature;BMP_pressure;BME280_temperature;BME280_humidity;BME280_pressure;Samples;Min_cycle;Max_cycle;Signal;HPM_P1;HPM_P2
2022/03/28 00:00:45;;;;;;;29.93;18.70;;;;;;;6.50;88.47;102820.03;5071803;28;20185;-72
2022/03/28 00:03:11;;;;;;;31.80;17.93;;;;;;;6.41;88.47;102818.56;5071855;28;20784;-73
2022/03/28 00:05:36;;;;;;;39.27;21.07;;;;;;;6.48;88.80;102816.53;5071495;28;20209;-72
2022/03/28 00:08:02;;;;;;;31.23;16.93;;;;;;;6.50;88.30;102814.94;5071612;28;20842;-72
2022/03/28 00:10:28;;;;;;;35.97;20.80;;;;;;;6.50;88.70;102807.31;5055481;28;20190;-72
2022/03/28 00:12:53;;;;;;;33.80;20.10;;;;;;;6.51;88.41;102811.66;5050475;28;20229;-72
2022/03/28 00:15:19;;;;;;;24.23;15.97;;;;;;;6.44;88.97;102817.09;5051574;28;20641;-73
2022/03/28 00:17:44;;;;;;;28.87;17.10;;;;;;;6.45;89.02;102816.31;5051411;28;20185;-72
2022/03/28 00:20:11;;;;;;;25.23;16.53;;;;;;;6.43;89.07;102815.34;5051607;28;20194;-72
2022/03/28 00:22:38;;;;;;;24.60;16.23;;;;;;;6.41;88.80;102806.69;5050146;28;20178;-72
2022/03/28 00:25:04;;;;;;;26.43;15.73;;;;;;;6.43;88.30;102806.81;5050471;28;20178;-72
2022/03/28 00:27:29;;;;;;;21.83;14.07;;;;;;;6.40;88.28;102799.84;5050271;28;20702;-73
2022/03/28 00:29:55;;;;;;;18.67;12.77;;;;;;;6.46;88.76;102805.38;5051657;28;20188;-72
2022/03/28 00:32:21;;;;;;;19.27;11.70;;;;;;;6.44;88.86;102798.41;5041601;28;20907;-72
2022/03/28 00:34:46;;;;;;;17.23;12.07;;;;;;;6.50;88.64;102794.59;5063616;28;20185;-73
2022/03/28 00:37:12;;;;;;;26.40;15.47;;;;;;;6.48;88.58;102780.00;5069502;28;20291;-73
2022/03/28 00:39:37;;;;;;;33.13;18.50;;;;;;;6.47;88.59;102770.63;5071212;28;20208;-72
2022/03/28 00:42:03;;;;;;;21.53;13.33;;;;;;;6.48;88.74;102773.25;5071042;28;20223;-73
2022/03/28 00:44:32;;;;;;;18.40;11.90;;;;;;;6.49;89.33;102772.47;5071142;28;20165;-73
2022/03/28 00:46:58;;;;;;;16.63;11.43;;;;;;;6.46;88.54;102767.22;5070931;28;20213;-72
2022/03/28 00:49:24;;;;;;;16.10;10.30;;;;;;;6.49;88.25;102764.84;5070733;28;20186;-72
2022/03/28 00:51:50;;;;;;;14.10;9.07;;;;;;;6.51;89.00;102759.88;5066367;28;20236;-72
2022/03/28 00:54:15;;;;;;;20.67;12.03;;;;;;;6.49;89.30;102751.25;5043188;28;20229;-72
2022/03/28 00:56:42;;;;;;;54.20;24.63;;;;;;;6.33;88.90;102759.53;5048715;28;20201;-73
2022/03/28 00:59:08;;;;;;;49.40;22.30;;;;;;;6.39;89.35;102756.50;5068951;28;20633;-72
2022/03/28 01:01:33;;;;;;;38.17;18.67;;;;;;;6.33;89.43;102756.09;5048336;28;20190;-72
2022/03/28 01:03:59;;;;;;;36.43;17.37;;;;;;;6.32;88.79;102764.50;5028765;28;20190;-72
2022/03/28 01:06:25;;;;;;;42.20;19.37;;;;;;;6.31;88.86;102755.13;5030018;28;20263;-72
2022/03/28 01:08:51;;;;;;;41.00;20.27;;;;;;;6.29;89.15;102749.03;5030587;28;20182;-72
2022/03/28 01:11:18;;;;;;;39.63;18.73;;;;;;;6.31;89.54;102748.34;5030777;28;20723;-72
2022/03/28 01:13:44;;;;;;;31.33;17.00;;;;;;;6.26;89.22;102744.63;5030534;28;20229;-72
2022/03/28 01:16:10;;;;;;;24.67;14.87;;;;;;;6.20;89.48;102741.69;5030458;28;20210;-72
2022/03/28 01:18:36;;;;;;;32.40;16.37;;;;;;;6.23;90.04;102739.34;5030312;28;20241;-71
2022/03/28 01:21:04;;;;;;;28.47;15.43;;;;;;;6.24;90.47;102738.56;5031922;28;20190;-73
2022/03/28 01:23:29;;;;;;;24.00;14.50;;;;;;;6.21;89.76;102735.81;5030428;28;20873;-72
2022/03/28 01:25:56;;;;;;;24.73;14.40;;;;;;;6.14;89.80;102732.75;5029091;28;20210;-72
2022/03/28 01:28:24;;;;;;;25.30;13.93;;;;;;;6.16;90.75;102729.53;5041823;28;20243;-72
2022/03/28 01:30:51;;;;;;;32.47;16.17;;;;;;;6.16;90.70;102721.91;5050167;28;20285;-73
2022/03/28 01:33:16;;;;;;;43.53;17.47;;;;;;;6.13;91.27;102719.16;5048901;28;20559;-73
2022/03/28 01:35:44;;;;;;;42.60;19.07;;;;;;;6.15;91.00;102709.97;5054857;28;20259;-72
2022/03/28 01:38:11;;;;;;;45.87;19.97;;;;;;;6.17;91.53;102716.03;5065713;28;20199;-72
2022/03/28 01:40:39;;;;;;;43.67;18.37;;;;;;;6.16;91.25;102708.28;5069062;28;20639;-72
2022/03/28 01:43:05;;;;;;;45.03;20.03;;;;;;;6.16;91.12;102710.84;5052253;28;20593;-72
2022/03/28 01:45:30;;;;;;;58.27;24.37;;;;;;;6.13;91.52;102708.13;5070160;28;20218;-72
2022/03/28 01:47:56;;;;;;;51.60;21.93;;;;;;;6.10;91.75;102707.91;5041288;28;20248;-73
2022/03/28 01:50:22;;;;;;;34.63;15.97;;;;;;;6.13;91.40;102708.97;5030383;28;20175;-72
2022/03/28 01:52:47;;;;;;;28.00;14.70;;;;;;;6.18;91.50;102706.75;5030241;28;20220;-73
2022/03/28 01:55:13;;;;;;;26.90;13.53;;;;;;;6.16;91.39;102699.03;5030150;28;20186;-73
2022/03/28 01:57:40;;;;;;;41.37;18.50;;;;;;;6.17;91.07;102705.00;5029868;28;20185;-72
2022/03/28 02:00:11;;;;;;;50.50;20.50;;;;;;;6.17;90.76;102693.16;5028565;28;20206;-73
2022/03/28 02:02:37;;;;;;;53.97;21.80;;;;;;;6.17;91.25;102685.50;5029616;28;20769;-73
2022/03/28 02:05:03;;;;;;;56.63;22.77;;;;;;;6.17;91.13;102682.97;5028562;28;20237;-72
2022/03/28 02:07:29;;;;;;;56.47;22.27;;;;;;;6.16;91.11;102680.31;5029540;28;20203;-73
2022/03/28 02:09:55;;;;;;;58.80;22.93;;;;;;;6.19;91.08;102671.25;5029424;28;20738;-73
2022/03/28 02:12:20;;;;;;;62.80;23.90;;;;;;;6.13;91.64;102669.97;5029519;28;20249;-73
2022/03/28 02:14:46;;;;;;;68.00;25.47;;;;;;;6.14;91.91;102672.63;5032749;28;20612;-73
2022/03/28 02:17:11;;;;;;;64.77;24.70;;;;;;;6.17;92.12;102677.88;5048209;28;20276;-73
2022/03/28 02:19:37;;;;;;;67.67;27.13;;;;;;;6.16;91.99;102676.13;5049404;28;20651;-72
2022/03/28 02:22:02;;;;;;;66.90;25.57;;;;;;;6.11;92.50;102680.03;5049540;28;20651;-72
2022/03/28 02:24:27;;;;;;;64.13;25.93;;;;;;;6.12;92.74;102678.38;5047984;28;20174;-73
2022/03/28 02:26:54;;;;;;;54.50;22.17;;;;;;;6.08;92.70;102668.78;5049332;28;20205;-72
2022/03/28 02:29:20;;;;;;;50.93;21.37;;;;;;;6.00;92.03;102667.38;5049237;28;20194;-72
2022/03/28 02:31:45;;;;;;;53.30;21.07;;;;;;;5.97;91.93;102665.53;5049161;28;20188;-73
2022/03/28 02:34:10;;;;;;;56.30;21.17;;;;;;;5.99;92.40;102656.31;5048013;28;20255;-72
2022/03/28 02:36:36;;;;;;;58.00;23.17;;;;;;;6.00;92.15;102660.66;5048854;28;20626;-73
2022/03/28 02:39:01;;;;;;;55.43;22.10;;;;;;;6.02;91.76;102663.28;5051698;28;20185;-73
2022/03/28 02:41:26;;;;;;;59.87;24.97;;;;;;;6.00;92.03;102655.56;5067214;28;20547;-74
2022/03/28 02:43:52;;;;;;;58.27;25.23;;;;;;;5.95;92.25;102661.97;5045454;28;20570;-72
2022/03/28 02:46:18;;;;;;;55.87;26.20;;;;;;;5.87;92.33;102655.53;5029277;28;20206;-72
2022/03/28 02:48:44;;;;;;;60.23;26.30;;;;;;;5.89;91.90;102656.50;5029654;28;20671;-73
2022/03/28 02:51:09;;;;;;;60.70;26.57;;;;;;;5.88;92.70;102649.66;5029635;28;20187;-73
2022/03/28 02:53:34;;;;;;;70.67;29.43;;;;;;;5.89;92.53;102653.94;5028003;28;20222;-72
2022/03/28 02:56:00;;;;;;;67.67;29.80;;;;;;;5.92;92.44;102655.81;5027963;28;20198;-72
2022/03/28 02:58:25;;;;;;;68.87;29.37;;;;;;;5.90;92.91;102649.75;5029107;28;20187;-72
2022/03/28 03:00:50;;;;;;;64.47;28.83;;;;;;;5.86;92.81;102646.16;5029036;28;20324;-72
2022/03/28 03:03:16;;;;;;;62.03;25.87;;;;;;;5.87;92.51;102644.47;5029176;28;20193;-73
2022/03/28 03:05:43;;;;;;;64.53;28.07;;;;;;;5.86;92.08;102633.44;5028413;28;20206;-73
2022/03/28 03:08:08;;;;;;;63.93;27.47;;;;;;;5.83;92.38;102628.13;5012518;28;20202;-73
2022/03/28 03:10:34;;;;;;;72.67;29.93;;;;;;;5.74;92.47;102634.22;5044703;28;20272;-72
2022/03/28 03:12:59;;;;;;;80.03;31.33;;;;;;;5.75;92.61;102625.84;5048792;28;20844;-72
2022/03/28 03:15:24;;;;;;;84.37;31.83;;;;;;;5.77;92.81;102624.28;5048698;28;20209;-73
2022/03/28 03:17:50;;;;;;;71.63;29.17;;;;;;;5.75;93.06;102624.16;5048723;28;20185;-73
2022/03/28 03:20:15;;;;;;;72.10;29.17;;;;;;;5.77;92.93;102624.28;5044114;28;20198;-72
2022/03/28 03:22:42;;;;;;;70.90;30.80;;;;;;;5.77;92.69;102625.16;5032624;28;20270;-74
2022/03/28 03:25:07;;;;;;;70.77;31.30;;;;;;;5.79;92.96;102617.63;5032695;28;20205;-73
2022/03/28 03:27:36;;;;;;;76.00;32.47;;;;;;;5.79;92.87;102615.06;5032368;28;20228;-72
2022/03/28 03:30:01;;;;;;;71.93;31.27;;;;;;;5.81;92.89;102616.97;5032460;28;20245;-72
2022/03/28 03:32:26;;;;;;;74.87;32.33;;;;;;;5.79;92.90;102617.63;5032749;28;20218;-73
2022/03/28 03:34:52;;;;;;;71.70;31.87;;;;;;;5.80;92.85;102610.13;5032514;28;20199;-72
2022/03/28 03:37:17;;;;;;;69.03;31.30;;;;;;;5.79;92.54;102615.06;5032353;28;20222;-72
2022/03/28 03:39:42;;;;;;;69.80;30.27;;;;;;;5.79;92.61;102615.97;5037923;28;20634;-72
2022/03/28 03:42:08;;;;;;;72.97;33.43;;;;;;;5.79;92.68;102610.00;5063846;28;20719;-72
2022/03/28 03:44:33;;;;;;;73.53;33.17;;;;;;;5.79;93.24;102608.34;5072113;28;20177;-73
2022/03/28 03:46:58;;;;;;;74.43;32.67;;;;;;;5.82;93.12;102606.06;5067168;28;20291;-73
2022/03/28 03:49:24;;;;;;;71.97;31.83;;;;;;;5.87;92.89;102611.41;5032932;28;20194;-72
2022/03/28 03:51:49;;;;;;;74.30;32.03;;;;;;;5.87;93.43;102607.22;5051940;28;20308;-72
2022/03/28 03:54:14;;;;;;;69.03;31.43;;;;;;;5.87;93.52;102601.25;5050894;28;20191;-72
2022/03/28 03:56:40;;;;;;;70.73;29.83;;;;;;;5.88;93.54;102605.56;5061494;28;20209;-72
2022/03/28 03:59:05;;;;;;;68.63;29.23;;;;;;;5.83;92.72;102607.81;5047008;28;20667;-73
2022/03/28 04:01:30;;;;;;;62.10;27.93;;;;;;;5.80;93.74;102610.13;5032142;28;20202;-72
2022/03/28 04:03:56;;;;;;;67.10;28.30;;;;;;;5.78;92.87;102609.13;5031960;28;20178;-72
2022/03/28 04:06:21;;;;;;;54.07;24.47;;;;;;;5.82;93.13;102607.69;5032103;28;20202;-73
2022/03/28 04:08:47;;;;;;;45.77;21.17;;;;;;;5.82;92.51;102603.50;5032007;28;20734;-72
2022/03/28 04:11:12;;;;;;;35.63;18.53;;;;;;;5.84;92.41;102601.94;5031514;28;20301;-72
2022/03/28 04:13:38;;;;;;;33.47;17.93;;;;;;;5.84;92.12;102594.31;5045091;28;20264;-73
2022/03/28 04:16:03;;;;;;;51.60;22.80;;;;;;;5.83;92.33;102594.19;5051627;28;20581;-72
2022/03/28 04:18:29;;;;;;;48.93;22.77;;;;;;;5.81;91.68;102583.06;5031502;28;20289;-72
2022/03/28 04:20:55;;;;;;;52.23;23.27;;;;;;;5.80;91.63;102592.34;5031257;28;20715;-72
2022/03/28 04:23:21;;;;;;;54.17;24.30;;;;;;;5.82;91.09;102590.81;5031668;28;20175;-73
2022/03/28 04:25:47;;;;;;;58.90;25.13;;;;;;;5.79;91.38;102584.56;5040044;28;20239;-72
2022/03/28 04:28:13;;;;;;;60.87;25.73;;;;;;;5.78;91.79;102590.44;5046939;28;20228;-72
2022/03/28 04:30:38;;;;;;;59.07;26.37;;;;;;;5.79;91.37;102588.00;5068973;28;20197;-73
2022/03/28 04:33:07;;;;;;;58.80;26.20;;;;;;;5.77;91.24;102578.53;5054478;28;20220;-72
2022/03/28 04:35:32;;;;;;;55.70;24.33;;;;;;;5.77;91.23;102584.50;5049918;28;20263;-72
2022/03/28 04:37:59;;;;;;;48.97;21.70;;;;;;;5.78;91.51;102587.91;5049763;28;20197;-71
2022/03/28 04:40:24;;;;;;;51.43;22.80;;;;;;;5.77;91.82;102587.03;5049806;28;20546;-72
2022/03/28 04:42:50;;;;;;;50.70;23.13;;;;;;;5.76;91.71;102582.72;5037768;28;20189;-72
2022/03/28 04:45:16;;;;;;;50.77;23.67;;;;;;;5.77;91.61;102588.69;5054888;28;20611;-72
2022/03/28 04:47:41;;;;;;;56.60;25.27;;;;;;;5.77;91.81;102584.50;5070852;28;20292;-72
2022/03/28 04:50:08;;;;;;;61.87;25.97;;;;;;;5.79;91.39;102582.94;5051938;28;20193;-73
2022/03/28 04:52:34;;;;;;;63.00;27.63;;;;;;;5.81;92.02;102589.00;5050903;28;20271;-73
2022/03/28 04:54:59;;;;;;;64.80;27.77;;;;;;;5.81;91.91;102591.56;5050814;28;20189;-73
2022/03/28 04:57:26;;;;;;;63.63;28.03;;;;;;;5.81;92.25;102578.84;5049749;28;20240;-72
2022/03/28 04:59:51;;;;;;;62.33;27.03;;;;;;;5.82;92.76;102579.75;5032752;28;20193;-73
2022/03/28 05:02:16;;;;;;;61.40;27.83;;;;;;;5.84;92.44;102573.97;5031962;28;20193;-72
2022/03/28 05:04:42;;;;;;;62.53;26.60;;;;;;;5.82;92.60;102570.47;5030530;28;20193;-72
2022/03/28 05:07:07;;;;;;;59.63;25.23;;;;;;;5.86;92.63;102563.91;5030702;28;20293;-73
2022/03/28 05:09:33;;;;;;;62.37;26.43;;;;;;;5.87;92.16;102560.59;5037759;28;20261;-72
2022/03/28 05:11:58;;;;;;;56.00;24.10;;;;;;;5.88;91.89;102555.63;5049190;28;20288;-72
2022/03/28 05:14:24;;;;;;;50.20;22.77;;;;;;;5.89;91.87;102553.97;5050667;28;20212;-73
2022/03/28 05:16:49;;;;;;;49.70;23.60;;;;;;;5.90;91.89;102556.56;5050637;28;20270;-72
2022/03/28 05:19:15;;;;;;;51.97;24.53;;;;;;;5.93;91.75;102563.53;5050492;28;20189;-72
2022/03/28 05:21:40;;;;;;;48.80;21.57;;;;;;;5.89;92.11;102559.03;5050753;28;20555;-73
2022/03/28 05:24:06;;;;;;;40.97;20.37;;;;;;;5.93;92.47;102555.91;5049171;28;20189;-73
2022/03/28 05:26:31;;;;;;;40.73;19.03;;;;;;;5.93;92.17;102554.25;5050288;28;20210;-73
2022/03/28 05:28:57;;;;;;;40.50;18.67;;;;;;;5.98;92.22;102546.94;5050012;28;20189;-72
2022/03/28 05:31:22;;;;;;;42.20;19.27;;;;;;;5.96;92.27;102551.91;5050351;28;20186;-72
2022/03/28 05:33:48;;;;;;;35.60;17.60;;;;;;;5.95;92.47;102555.22;5050209;28;20291;-72
2022/03/28 05:36:14;;;;;;;38.50;16.93;;;;;;;5.95;92.66;102542.50;5045875;28;20573;-73
2022/03/28 05:38:40;;;;;;;33.70;15.97;;;;;;;6.00;91.95;102540.28;5029954;28;20197;-73
2022/03/28 05:41:07;;;;;;;36.50;17.07;;;;;;;5.99;92.56;102544.47;5030123;28;20605;-73
2022/03/28 05:43:37;;;;;;;32.83;16.53;;;;;;;6.01;92.89;102542.94;5045588;28;20299;-72
2022/03/28 05:46:04;;;;;;;30.57;17.30;;;;;;;6.00;92.36;102543.72;5048693;28;20205;-74
2022/03/28 05:48:30;;;;;;;33.10;17.47;;;;;;;6.04;92.33;102547.31;5032013;28;20201;-76
2022/03/28 05:50:56;;;;;;;35.00;17.73;;;;;;;6.05;92.20;102542.34;5055978;28;20189;-74
2022/03/28 05:53:21;;;;;;;39.13;20.07;;;;;;;6.04;91.84;102543.09;5049848;28;20570;-72
2022/03/28 05:55:46;;;;;;;44.37;20.93;;;;;;;6.05;92.22;102538.91;5049582;28;20216;-75
2022/03/28 05:58:12;;;;;;;36.80;19.23;;;;;;;6.05;92.43;102542.34;5048434;28;20196;-73
2022/03/28 06:00:38;;;;;;;43.00;21.17;;;;;;;6.06;92.23;102536.47;5050022;28;20189;-74
2022/03/28 06:03:08;;;;;;;39.93;19.97;;;;;;;6.08;92.08;102537.44;5049758;28;20173;-74
2022/03/28 06:05:34;;;;;;;42.00;20.83;;;;;;;6.11;92.32;102539.28;5048447;28;20296;-74
2022/03/28 06:07:59;;;;;;;36.23;20.13;;;;;;;6.12;91.59;102541.06;5049551;28;20177;-73
2022/03/28 06:10:25;;;;;;;35.60;19.57;;;;;;;6.13;91.66;102540.28;5018782;28;20251;-72
2022/03/28 06:12:51;;;;;;;36.07;18.83;;;;;;;6.15;91.85;102542.16;5042139;28;20583;-73
2022/03/28 06:15:17;;;;;;;46.00;20.47;;;;;;;6.08;90.68;102537.44;5042081;28;20194;-73
2022/03/28 06:17:43;;;;;;;37.13;19.77;;;;;;;6.12;90.69;102539.41;5048788;28;20189;-73
2022/03/28 06:20:09;;;;;;;35.70;18.90;;;;;;;6.11;90.30;102535.09;5027952;28;20194;-74
2022/03/28 06:22:35;;;;;;;34.53;17.23;;;;;;;6.13;90.56;102528.44;5027884;28;20193;-73
2022/03/28 06:25:01;;;;;;;38.87;20.00;;;;;;;6.10;89.31;102523.19;5033443;28;20197;-72
2022/03/28 06:27:26;;;;;;;38.83;20.87;;;;;;;6.11;89.25;102530.00;5041384;28;20217;-74
2022/03/28 06:29:51;;;;;;;37.73;20.67;;;;;;;6.09;88.97;102525.63;5028555;28;20783;-72
2022/03/28 06:32:17;;;;;;;32.07;18.20;;;;;;;6.08;89.51;102527.25;5047953;28;20210;-72
2022/03/28 06:34:42;;;;;;;32.13;17.53;;;;;;;6.16;89.19;102532.84;5049296;28;20651;-74
2022/03/28 06:37:08;;;;;;;33.60;17.67;;;;;;;6.12;89.04;102529.22;5047625;28;20224;-72
2022/03/28 06:39:34;;;;;;;37.33;18.83;;;;;;;6.16;88.99;102526.09;5049305;28;20251;-72
2022/03/28 06:42:00;;;;;;;31.33;16.03;;;;;;;6.15;89.39;102519.25;5049140;28;20679;-72
2022/03/28 06:44:25;;;;;;;28.77;15.93;;;;;;;6.20;89.80;102517.00;5038136;28;20192;-72
2022/03/28 06:46:51;;;;;;;29.03;14.90;;;;;;;6.16;89.50;102515.03;5039625;28;20202;-73
2022/03/28 06:49:16;;;;;;;32.30;16.47;;;;;;;6.24;89.11;102502.03;5041798;28;20239;-72
2022/03/28 06:51:42;;;;;;;29.47;16.47;;;;;;;6.29;89.08;102502.31;5047728;28;20269;-73
2022/03/28 06:54:08;;;;;;;34.90;18.53;;;;;;;6.30;88.77;102493.91;5047605;28;20221;-73
2022/03/28 06:56:36;;;;;;;30.83;17.40;;;;;;;6.32;88.09;102499.97;5033086;28;20296;-73
2022/03/28 06:59:01;;;;;;;30.50;17.27;;;;;;;6.36;88.91;102495.16;5040690;28;20268;-73
2022/03/28 07:01:27;;;;;;;23.97;14.83;;;;;;;6.42;88.30;102487.94;5049350;28;20273;-73
2022/03/28 07:03:54;;;;;;;19.50;12.23;;;;;;;6.43;88.28;102491.34;5052068;28;20170;-73
2022/03/28 07:06:20;;;;;;;14.63;9.80;;;;;;;6.43;87.37;102483.72;5050307;28;20208;-72
2022/03/28 07:08:46;;;;;;;12.23;9.70;;;;;;;6.47;87.29;102484.00;5051841;28;20185;-73
2022/03/28 07:11:11;;;;;;;11.83;8.97;;;;;;;6.43;88.08;102476.97;5048891;28;20192;-72
2022/03/28 07:13:37;;;;;;;11.87;8.53;;;;;;;6.44;87.95;102480.41;5032754;28;20285;-72
2022/03/28 07:16:02;;;;;;;10.27;7.47;;;;;;;6.50;87.81;102484.16;5040538;28;20256;-73
2022/03/28 07:18:27;;;;;;;7.80;5.63;;;;;;;6.52;87.97;102487.72;5039246;28;20194;-72
2022/03/28 07:20:53;;;;;;;6.40;4.83;;;;;;;6.48;87.20;102483.22;5046112;28;20244;-72
2022/03/28 07:23:19;;;;;;;7.60;4.80;;;;;;;6.59;86.72;102489.84;5047765;28;20261;-73
2022/03/28 07:25:45;;;;;;;10.77;7.57;;;;;;;6.66;85.79;102481.81;5032722;28;20198;-73
2022/03/28 07:28:13;;;;;;;14.93;8.80;;;;;;;6.73;85.70;102480.50;5032559;28;20301;-73
2022/03/28 07:30:39;;;;;;;12.77;7.93;;;;;;;6.75;85.12;102477.28;5033336;28;20613;-73
2022/03/28 07:33:08;;;;;;;11.97;7.43;;;;;;;6.78;85.08;102466.41;5032870;28;20225;-72
2022/03/28 07:35:35;;;;;;;10.40;6.73;;;;;;;6.81;85.82;102472.53;5032646;28;20564;-73
2022/03/28 07:38:07;;;;;;;8.37;5.63;;;;;;;6.87;84.94;102472.03;5031300;28;20280;-73
2022/03/28 07:40:33;;;;;;;4.67;3.13;;;;;;;6.83;85.10;102471.00;5032815;28;20199;-73
2022/03/28 07:42:58;;;;;;;4.30;2.70;;;;;;;6.84;84.10;102470.19;5032321;28;20891;-72
2022/03/28 07:45:24;;;;;;;4.67;3.40;;;;;;;6.84;84.59;102466.75;5051421;28;20271;-72
2022/03/28 07:47:49;;;;;;;7.00;4.07;;;;;;;6.85;84.75;102468.50;5064847;28;20243;-74
2022/03/28 07:50:15;;;;;;;5.80;3.87;;;;;;;6.85;85.18;102465.97;5072331;28;20200;-72
2022/03/28 07:52:40;;;;;;;6.33;4.40;;;;;;;6.84;85.53;102467.66;5054895;28;20217;-72
2022/03/28 07:55:07;;;;;;;7.97;4.57;;;;;;;6.68;85.94;102461.53;5047004;28;20221;-72
2022/03/28 07:57:34;;;;;;;6.13;3.70;;;;;;;6.79;85.12;102468.16;5041128;28;20221;-72
2022/03/28 07:59:59;;;;;;;7.47;5.37;;;;;;;6.78;85.17;102459.63;5031698;28;20197;-72
2022/03/28 08:02:25;;;;;;;8.43;5.27;;;;;;;6.72;84.93;102451.63;5032043;28;20180;-72
2022/03/28 08:04:51;;;;;;;6.30;4.37;;;;;;;6.75;84.37;102451.81;5031847;28;20240;-73
2022/03/28 08:07:16;;;;;;;4.70;3.17;;;;;;;6.75;83.75;102451.81;5031947;28;20218;-74
2022/03/28 08:09:42;;;;;;;3.77;2.63;;;;;;;6.88;83.51;102445.78;5031719;28;20191;-72
2022/03/28 08:12:09;;;;;;;5.73;3.53;;;;;;;6.84;82.46;102442.19;5032294;28;20751;-72
2022/03/28 08:14:35;;;;;;;7.37;4.07;;;;;;;6.93;82.25;102449.50;5031764;28;20648;-72
2022/03/28 08:17:00;;;;;;;6.13;4.43;;;;;;;7.02;82.06;102445.84;5048704;28;20264;-72
2022/03/28 08:19:26;;;;;;;8.13;4.80;;;;;;;7.04;82.15;102439.16;5048330;28;20185;-72
2022/03/28 08:21:51;;;;;;;13.13;8.17;;;;;;;7.03;82.35;102439.94;5036521;28;20182;-73
2022/03/28 08:24:17;;;;;;;13.70;9.63;;;;;;;7.05;81.97;102437.50;5031818;28;20198;-72
2022/03/28 08:26:42;;;;;;;15.63;10.83;;;;;;;7.06;81.73;102432.50;5039659;28;20213;-73
2022/03/28 08:29:08;;;;;;;11.20;8.53;;;;;;;7.18;81.66;102429.78;5031143;28;20190;-72
2022/03/28 08:31:33;;;;;;;8.67;6.90;;;;;;;7.25;80.98;102426.78;5043107;28;20201;-71
2022/03/28 08:33:59;;;;;;;6.57;4.97;;;;;;;7.31;80.72;102434.78;5039211;28;20217;-73
2022/03/28 08:36:24;;;;;;;14.07;10.47;;;;;;;7.37;80.19;102427.50;5050198;28;20287;-75
2022/03/28 08:38:50;;;;;;;7.93;5.97;;;;;;;7.43;80.48;102430.41;5053331;28;20770;-74
2022/03/28 08:41:18;;;;;;;5.03;4.47;;;;;;;7.36;79.77;102431.72;5042326;28;20260;-74
2022/03/28 08:43:44;;;;;;;3.37;3.00;;;;;;;7.35;80.47;102431.63;5030661;28;20199;-72
2022/03/28 08:46:10;;;;;;;5.37;3.80;;;;;;;7.32;80.10;102423.81;5030249;28;20214;-73
2022/03/28 08:48:40;;;;;;;5.83;4.37;;;;;;;7.34;80.34;102428.22;5029039;28;20545;-72
2022/03/28 08:51:11;;;;;;;6.17;4.90;;;;;;;7.41;79.78;102421.78;5050320;28;20272;-72
2022/03/28 08:53:36;;;;;;;5.63;5.03;;;;;;;7.41;79.80;102415.00;5052173;28;20221;-75
2022/03/28 08:56:03;;;;;;;7.43;5.60;;;;;;;7.50;80.01;102419.75;5049034;28;20267;-74
2022/03/28 08:58:28;;;;;;;8.80;6.17;;;;;;;7.50;79.53;102412.09;5049080;28;20577;-73
2022/03/28 09:00:54;;;;;;;6.90;5.87;;;;;;;7.52;79.67;102416.53;5049113;28;20189;-73
2022/03/28 09:03:19;;;;;;;7.27;6.43;;;;;;;7.63;78.97;102409.44;5049055;28;20210;-73
2022/03/28 09:05:47;;;;;;;7.27;6.27;;;;;;;7.77;78.54;102406.00;5050496;28;20206;-74
2022/03/28 09:08:13;;;;;;;9.60;8.70;;;;;;;7.85;78.55;102403.09;5050259;28;20182;-74
2022/03/28 09:10:44;;;;;;;12.27;11.07;;;;;;;7.90;77.12;102404.22;5016549;28;20236;-75
2022/03/28 09:13:11;;;;;;;8.43;7.53;;;;;;;8.14;77.27;102400.47;5036963;28;20394;-74
2022/03/28 09:15:52;;;;;;;9.60;8.53;;;;;;;8.10;75.94;102398.53;5036497;28;20218;-74
2022/03/28 09:18:34;;;;;;;9.40;8.50;;;;;;;8.06;75.58;102394.06;5028034;28;20190;-75
2022/03/28 09:21:10;;;;;;;10.20;9.13;;;;;;;8.20;75.82;102393.16;5012019;28;20186;-74
2022/03/28 09:23:40;;;;;;;16.40;14.90;;;;;;;8.11;75.93;102384.97;5029853;28;20174;-74
2022/03/28 09:26:18;;;;;;;18.00;16.20;;;;;;;8.09;75.66;102388.25;5029623;28;20222;-74
2022/03/28 09:28:56;;;;;;;17.20;15.60;;;;;;;8.23;74.55;102388.22;5049214;28;20276;-74
2022/03/28 09:31:32;;;;;;;15.20;13.90;;;;;;;8.31;74.08;102389.53;5042331;28;20194;-74
2022/03/28 09:34:09;;;;;;;14.40;13.10;;;;;;;8.44;73.25;102376.59;5040821;28;20297;-75
2022/03/28 09:36:36;;;;;;;13.17;11.77;;;;;;;8.44;73.87;102374.03;5056070;28;20209;-75
2022/03/28 09:39:06;;;;;;;12.90;11.80;;;;;;;8.35;74.42;102375.25;5049310;28;20190;-73
2022/03/28 09:41:32;;;;;;;11.77;10.67;;;;;;;8.52;73.44;102377.00;5049632;28;20215;-73
2022/03/28 09:43:58;;;;;;;12.20;11.10;;;;;;;8.52;73.65;102377.88;5043266;28;20190;-73
2022/03/28 09:46:28;;;;;;;14.37;13.00;;;;;;;8.53;73.51;102378.75;5044611;28;20249;-74
2022/03/28 09:48:54;;;;;;;13.33;12.13;;;;;;;8.64;73.68;102377.63;5029233;28;20198;-74
2022/03/28 09:51:23;;;;;;;16.20;14.67;;;;;;;8.59;73.44;102379.97;5028120;28;20182;-72
2022/03/28 09:53:49;;;;;;;15.33;13.83;;;;;;;8.69;73.48;102366.84;5029322;28;20272;-72
2022/03/28 09:56:14;;;;;;;15.53;13.93;;;;;;;8.67;72.15;102373.53;5042990;28;20217;-73
2022/03/28 09:59:01;;;;;;;14.30;12.53;;;;;;;8.56;72.92;102374.69;5047671;28;20185;-73
2022/03/28 10:01:35;;;;;;;13.27;11.97;;;;;;;8.58;73.08;102369.66;5049441;28;20586;-73
2022/03/28 10:04:05;;;;;;;13.60;12.37;;;;;;;8.71;73.49;102365.25;5049159;28;20548;-73
2022/03/28 10:06:32;;;;;;;18.37;16.47;;;;;;;8.77;73.56;102362.13;5048838;28;20212;-74
2022/03/28 10:08:58;;;;;;;15.83;14.23;;;;;;;8.69;72.05;102364.31;5037085;28;20202;-73
2022/03/28 10:11:25;;;;;;;16.40;14.33;;;;;;;8.74;73.16;102356.88;5015515;28;20234;-73
2022/03/28 10:13:50;;;;;;;16.03;14.53;;;;;;;8.95;72.12;102353.75;5034107;28;20711;-75
2022/03/28 10:16:16;;;;;;;14.27;12.87;;;;;;;9.08;71.20;102345.00;5046606;28;20236;-72
2022/03/28 10:18:44;;;;;;;13.87;12.43;;;;;;;9.32;70.43;102341.06;5048659;28;20188;-73
2022/03/28 10:21:23;;;;;;;16.63;15.10;;;;;;;9.56;69.20;102339.69;5049135;28;20197;-72
2022/03/28 10:24:10;;;;;;;17.53;15.90;;;;;;;10.10;67.01;102327.78;5047245;28;20352;-74
2022/03/28 10:26:44;;;;;;;17.37;15.87;;;;;;;9.97;66.79;102324.56;5048862;28;20547;-72
2022/03/28 10:29:14;;;;;;;19.03;17.33;;;;;;;9.95;67.60;102318.53;5048158;28;20177;-72
2022/03/28 10:31:55;;;;;;;18.50;16.80;;;;;;;10.21;68.33;102320.59;5065521;28;20560;-73
2022/03/28 10:34:45;;;;;;;21.90;19.90;;;;;;;9.84;67.14;102325.69;5041527;28;20325;-71
2022/03/28 10:37:45;;;;;;;21.27;19.20;;;;;;;12.27;60.41;102317.13;5043907;28;20209;-71
2022/03/28 10:40:24;;;;;;;18.17;16.47;;;;;;;10.83;64.13;102319.91;5053824;28;20187;-71
2022/03/28 10:43:14;;;;;;;21.13;19.23;;;;;;;10.28;66.08;102305.56;5066830;28;20204;-71
2022/03/28 10:45:49;;;;;;;22.03;19.40;;;;;;;10.51;66.26;102310.00;5049196;28;20706;-72
2022/03/28 10:48:16;;;;;;;18.00;16.30;;;;;;;10.49;67.14;102303.06;5047789;28;20181;-72
2022/03/28 10:50:54;;;;;;;20.07;18.03;;;;;;;11.00;64.90;102292.41;5049043;28;20181;-71
2022/03/28 10:53:39;;;;;;;21.50;19.13;;;;;;;10.68;65.16;102288.53;5048019;28;20358;-72
2022/03/28 10:56:10;;;;;;;21.10;19.00;;;;;;;11.23;63.56;102289.09;5037821;28;20214;-72
2022/03/28 10:58:55;;;;;;;18.93;17.03;;;;;;;11.10;63.04;102284.31;5029114;28;20842;-72
2022/03/28 11:01:32;;;;;;;18.60;16.70;;;;;;;11.23;64.27;102283.97;5029238;28;20220;-72
2022/03/28 11:04:02;;;;;;;18.83;17.03;;;;;;;11.18;63.96;102281.22;5029095;28;20831;-72
2022/03/28 11:06:59;;;;;;;19.10;17.20;;;;;;;11.55;62.80;102275.84;5011377;28;20225;-71
2022/03/28 11:10:00;;;;;;;18.30;16.40;;;;;;;11.16;64.31;102269.16;5035081;28;20196;-72
2022/03/28 11:12:39;;;;;;;18.30;16.40;;;;;;;11.03;64.83;102265.25;5048934;28;20292;-72
2022/03/28 11:15:22;;;;;;;20.07;17.97;;;;;;;10.85;65.34;102266.19;5047795;28;20268;-72
2022/03/28 11:18:09;;;;;;;23.97;21.27;;;;;;;10.92;65.19;102247.69;5047579;28;20228;-73
2022/03/28 11:20:50;;;;;;;26.57;23.67;;;;;;;10.94;64.62;102254.63;5040667;28;20191;-71